EW9036 Weather Reports


Display with metric or nautical units.
time (UTC)temp
F
wind
direction
speed
MPH
gust
MPH
rain 1hr
in
rain 24hr
in
rain mn
in
humidity
%
barometer
mb
20210926014559 58 0 0.0 0.0 0.00 0.00 0.00 93 1012.1
20210926013050 59 0 0.0 0.0 0.00 0.00 0.00 93 1012.2
20210926011617 59 0 0.0 0.0 0.00 0.00 0.00 93 1012.4
20210926010049 59 0 0.0 0.0 0.00 0.00 0.00 93 1012.4
20210926004549 59 0 0.0 0.0 0.00 0.00 0.00 92 1012.6
20210926003052 60 0 0.0 1.0 0.00 0.00 0.00 92 1012.6
20210926001543 60 0 0.0 1.0 0.00 0.00 0.00 91 1012.7
20210926000104 61 0 0.0 1.0 0.00 0.00 0.00 90 1012.8
20210925234538 62 0 0.0 0.0 0.00 0.00 0.00 89 1012.8
20210925233110 62 0 0.0 0.0 0.00 0.00 0.00 88 1012.9
20210925231549 63 0 0.0 1.0 0.00 0.00 0.00 87 1013.0
20210925230038 64 0 0.0 0.0 0.00 0.00 0.00 85 1013.0
20210925224545 65 0 0.0 0.0 0.00 0.00 0.00 83 1013.1
20210925223050 67 0 0.0 1.0 0.00 0.00 0.00 80 1013.2
20210925221541 68 0 0.0 1.0 0.00 0.00 0.00 79 1013.1
20210925220110 70 0 0.0 1.0 0.00 0.00 0.00 78 1013.2
20210925214539 71 0 0.0 1.0 0.00 0.00 0.00 74 1013.2
20210925213042 73 0 0.0 1.0 0.00 0.00 0.00 68 1013.3
20210925211614 76 0 0.0 1.0 0.00 0.00 0.00 62 1013.6
20210925210042 78 0 0.0 2.0 0.00 0.00 0.00 56 1013.4
20210925204614 78 0 0.0 2.0 0.00 0.00 0.00 55 1013.6
20210925203045 78 61 0.0 2.0 0.00 0.00 0.00 54 1013.6
20210925201600 78 138 0.0 2.0 0.00 0.00 0.00 58 1013.8
20210925200107 77 0 0.0 3.0 0.00 0.00 0.00 56 1013.8
20210925194631 77 26 0.0 4.0 0.00 0.00 0.00 59 1014.1
20210925193038 78 74 0.0 2.0 0.00 0.00 0.00 54 1014.2
20210925191541 77 0 1.0 3.0 0.00 0.00 0.00 54 1014.2
20210925190055 77 58 1.0 3.0 0.00 0.00 0.00 55 1014.4
20210925184535 77 211 1.0 2.0 0.00 0.00 0.00 53 1014.6
20210925183119 76 162 0.0 3.0 0.00 0.00 0.00 54 1014.7
20210925181554 77 165 0.0 4.0 0.00 0.00 0.00 55 1014.9
20210925180041 76 259 0.0 3.0 0.00 0.00 0.00 59 1015.1
20210925174541 74 26 1.0 4.0 0.00 0.02 0.00 57 1015.3
20210925173102 73 86 0.0 5.0 0.00 0.02 0.00 56 1015.5
20210925171632 72 117 1.0 2.0 0.00 0.02 0.00 62 1015.8
20210925170054 71 179 1.0 4.0 0.00 0.02 0.00 61 1015.9
20210925164554 71 56 0.0 4.0 0.00 0.06 0.00 63 1016.1
20210925163045 70 80 0.0 3.0 0.00 0.06 0.00 62 1016.3
20210925161547 69 62 0.0 2.0 0.00 0.06 0.00 66 1016.4
20210925160046 69 94 0.0 2.0 0.00 0.06 0.00 66 1016.5
20210925154620 69 0 1.0 5.0 0.00 0.12 0.00 65 1016.5
20210925153129 68 0 1.0 4.0 0.00 0.12 0.00 67 1016.7
20210925151527 67 0 0.0 4.0 0.00 0.12 0.00 69 1016.8
20210925150040 67 274 0.0 4.0 0.00 0.12 0.00 70 1017.1
20210925144545 66 168 0.0 5.0 0.00 0.13 0.00 71 1017.2
20210925143041 65 114 2.0 4.0 0.00 0.13 0.00 72 1017.2
20210925141613 64 83 1.0 5.0 0.00 0.13 0.00 72 1017.2
20210925140034 63 74 0.0 3.0 0.00 0.13 0.00 78 1017.4
20210925134533 63 75 1.0 5.0 0.00 0.17 0.00 77 1017.5
20210925133122 62 0 0.0 5.0 0.00 0.17 0.00 78 1017.8
20210925131542 62 57 1.0 4.0 0.00 0.17 0.00 79 1017.7
20210925130041 60 19 1.0 4.0 0.00 0.17 0.00 85 1017.6
20210925124609 59 0 1.0 3.0 0.00 0.18 0.00 91 1017.6
20210925123056 58 52 1.0 3.0 0.00 0.18 0.00 92 1017.6
20210925121609 57 0 0.0 2.0 0.00 0.18 0.00 95 1017.7
20210925120045 56 0 0.0 2.0 0.00 0.18 0.00 96 1017.7
20210925114600 56 0 0.0 1.0 0.00 0.18 0.00 95 1017.7
20210925113105 55 0 0.0 0.0 0.00 0.18 0.00 95 1017.7
20210925111611 55 0 0.0 0.0 0.00 0.18 0.00 94 1017.5
20210925110058 56 0 0.0 0.0 0.00 0.18 0.00 94 1017.6
20210925104611 56 0 0.0 0.0 0.00 0.19 0.00 94 1017.6
20210925103035 57 0 0.0 0.0 0.00 0.19 0.00 94 1017.5
20210925101812 57 0 0.0 0.0 0.00 0.19 0.00 94 1017.5
20210925100101 57 0 0.0 0.0 0.00 0.19 0.00 94 1017.6
20210925094554 58 0 0.0 0.0 0.00 0.19 0.00 93 1017.5
20210925093144 58 0 0.0 0.0 0.00 0.19 0.00 94 1017.5
20210925091549 59 0 0.0 0.0 0.00 0.19 0.00 94 1017.4
20210925090138 59 0 0.0 0.0 0.00 0.19 0.00 94 1017.4
20210925084540 59 0 0.0 0.0 0.00 0.19 0.00 94 1017.4
20210925083042 59 0 0.0 0.0 0.00 0.19 0.00 93 1017.3
20210925081556 60 0 0.0 1.0 0.00 0.19 0.00 93 1017.3
20210925080106 60 0 0.0 0.0 0.00 0.19 0.00 93 1017.2
20210925074631 60 0 0.0 0.0 0.00 0.19 0.00 93 1017.3
20210925073109 60 0 0.0 1.0 0.00 0.19 0.00 93 1017.3
20210925071644 60 0 0.0 0.0 0.00 0.19 0.00 92 1017.2
20210925070050 61 0 0.0 0.0 0.00 0.19 0.00 91 1017.3
20210925064550 62 0 0.0 0.0 0.00 0.19 0.00 90 1017.2
20210925063102 62 0 0.0 0.0 0.00 0.19 0.00 89 1017.4
20210925061547 63 139 0.0 1.0 0.00 0.19 0.00 89 1017.4
20210925060046 63 0 0.0 1.0 0.00 0.19 0.00 88 1017.4
20210925054539 63 0 0.0 1.0 0.00 0.19 0.00 87 1017.4
20210925053100 63 89 0.0 2.0 0.00 0.19 0.00 88 1017.2
20210925051540 63 0 0.0 1.0 0.00 0.19 0.00 90 1017.4
20210925050100 63 0 0.0 1.0 0.00 0.19 0.00 91 1017.6
20210925044537 63 0 0.0 1.0 0.00 0.19 0.00 92 1017.5
20210925043035 63 0 0.0 2.0 0.00 0.19 0.00 92 1017.5
20210925041649 64 0 0.0 1.0 0.00 0.19 0.00 93 1017.3
20210925040047 64 0 0.0 1.0 0.00 0.19 0.00 93 1017.2
20210925034607 64 0 0.0 1.0 0.00 0.19 0.19 93 1017.2
20210925033035 64 0 0.0 0.0 0.00 0.19 0.19 93 1017.2
20210925031634 64 0 0.0 1.0 0.00 0.19 0.19 93 1017.3
20210925030045 64 0 0.0 1.0 0.00 0.19 0.19 93 1017.2
20210925024650 64 0 0.0 1.0 0.00 0.19 0.19 92 1017.0
20210925023100 64 0 0.0 0.0 0.00 0.19 0.19 91 1017.0
20210925021617 64 0 0.0 0.0 0.00 0.19 0.19 90 1017.1
20210925020050 65 0 0.0 0.0 0.00 0.19 0.19 89 1017.1